Lilongwe, Malawi
Current Conditions -  °F | °C
As of 10:00 AM on Wednesday 22 Oct 2014 (Local Time) from FWKI Reporting Station
Clear Clear  
Wind Chill: 26°   Ceiling: Unl
Heat Index: 26°   Visibility: 6mi
Dew Point:   Wind: 14mph
Humidity: 34%   Direction: 100°E
Pressure: 30.21"   Gusts: NA
Location:  13.97°S, 33.8°E
Report Text: FWKI 220800Z 10012KT CAVOK 26/09 Q1023 NOSIG
Loading
Personal Weather Stations






























Interactive Weather Map
Tropical Storm Tracking
New forecast layout! Learn more

10-Day Weather Forecast

Advertisements
Track Severe Weather on mobile